Time;durP1;ratioP1;P1;durP2;ratioP2;P2;SDS_P1;SDS_P2;PMS_P1;PMS_P2;Temp;Humidity;BMP_temperature;BMP_pressure;BME280_temperature;BME280_humidity;BME280_pressure;Samples;Min_cycle;Max_cycle;Signal;HPM_P1;HPM_P2
2022/12/28 00:04:53;;;;;;;102.85;46.67;;;;;;;;;;10100783;28;20091;-63
2022/12/28 00:09:48;;;;;;;115.38;50.28;;;;;;;;;;10104622;28;20072;-63
2022/12/28 00:14:43;;;;;;;119.85;51.55;;;;;;;;;;10100452;28;20045;-63
2022/12/28 00:19:39;;;;;;;125.70;53.38;;;;;;;;;;10118720;28;20052;-63
2022/12/28 00:24:33;;;;;;;116.80;52.55;;;;;;;;;;10124298;28;20131;-63
2022/12/28 00:29:27;;;;;;;132.18;56.42;;;;;;;;;;10130654;28;20136;-63
2022/12/28 00:34:20;;;;;;;130.48;55.42;;;;;;;;;;10122575;28;20462;-63
2022/12/28 00:39:13;;;;;;;128.20;54.67;;;;;;;;;;10118043;28;20476;-63
2022/12/28 00:44:06;;;;;;;133.45;56.75;;;;;;;;;;10116849;28;20041;-63
2022/12/28 00:49:00;;;;;;;147.23;58.97;;;;;;;;;;10109378;28;20097;-63
2022/12/28 00:53:53;;;;;;;184.80;62.38;;;;;;;;;;10098697;28;20118;-63
2022/12/28 00:58:45;;;;;;;144.05;57.42;;;;;;;;;;10112447;28;20048;-63
2022/12/28 01:03:39;;;;;;;175.35;60.78;;;;;;;;;;10111050;28;20045;-63
2022/12/28 01:08:32;;;;;;;155.20;61.35;;;;;;;;;;10109634;28;20421;-63
2022/12/28 01:13:26;;;;;;;148.07;54.45;;;;;;;;;;10101783;28;20052;-63
2022/12/28 01:18:19;;;;;;;143.80;60.22;;;;;;;;;;10117566;28;20076;-63
2022/12/28 01:23:14;;;;;;;156.15;60.83;;;;;;;;;;10111707;28;20116;-63
2022/12/28 01:28:08;;;;;;;130.00;51.70;;;;;;;;;;10077838;28;20493;-63
2022/12/28 01:33:01;;;;;;;124.95;53.63;;;;;;;;;;10092065;28;20049;-62
2022/12/28 01:37:56;;;;;;;142.52;54.22;;;;;;;;;;10107984;28;20045;-63
2022/12/28 01:42:50;;;;;;;158.38;57.90;;;;;;;;;;10107344;28;20045;-63
2022/12/28 01:47:44;;;;;;;170.40;60.20;;;;;;;;;;10107744;28;20041;-63
2022/12/28 01:52:57;;;;;;;188.55;64.00;;;;;;;;;;10109318;28;20053;-62
2022/12/28 01:58:03;;;;;;;199.80;70.70;;;;;;;;;;10100474;28;20079;-62
2022/12/28 02:03:06;;;;;;;296.60;75.95;;;;;;;;;;10115729;28;20045;-63
2022/12/28 02:08:05;;;;;;;260.63;72.70;;;;;;;;;;10120751;28;20064;-63
2022/12/28 02:12:59;;;;;;;199.82;72.05;;;;;;;;;;10108307;28;20044;-63
2022/12/28 02:17:53;;;;;;;291.20;71.32;;;;;;;;;;10100025;28;20063;-63
2022/12/28 02:23:18;;;;;;;345.35;73.03;;;;;;;;;;10106341;28;20057;-63
2022/12/28 02:28:36;;;;;;;301.75;71.30;;;;;;;;;;10107214;28;20572;-63
2022/12/28 02:33:54;;;;;;;219.90;69.15;;;;;;;;;;10105227;28;20033;-63
2022/12/28 02:39:21;;;;;;;194.13;63.60;;;;;;;;;;10077754;28;20041;-63
2022/12/28 02:50:04;;;;;;;219.57;69.95;;;;;;;;;;10104469;28;20493;-63
2022/12/28 03:00:02;;;;;;;209.40;69.78;;;;;;;;;;10101945;28;20045;-63
2022/12/28 03:05:14;;;;;;;225.13;68.00;;;;;;;;;;10090541;28;20083;-63
2022/12/28 03:10:22;;;;;;;140.13;60.42;;;;;;;;;;10104571;28;20136;-63
2022/12/28 03:15:37;;;;;;;413.17;72.95;;;;;;;;;;10098504;28;20053;-63
2022/12/28 03:31:09;;;;;;;125.30;58.85;;;;;;;;;;10099079;28;20057;-63
2022/12/28 03:36:27;;;;;;;170.60;59.35;;;;;;;;;;10113914;28;20048;-63
2022/12/28 03:41:43;;;;;;;147.55;57.15;;;;;;;;;;10106158;28;20516;-63
2022/12/28 03:46:59;;;;;;;166.98;60.58;;;;;;;;;;10084720;28;20651;-63
2022/12/28 03:51:53;;;;;;;132.18;57.22;;;;;;;;;;10089702;28;20502;-63
2022/12/28 03:56:50;;;;;;;115.00;57.53;;;;;;;;;;10110879;28;20099;-63
2022/12/28 04:01:48;;;;;;;111.63;54.88;;;;;;;;;;10100550;28;20079;-63
2022/12/28 04:06:43;;;;;;;96.40;47.17;;;;;;;;;;10108887;28;20053;-63
2022/12/28 04:11:37;;;;;;;110.43;52.70;;;;;;;;;;10102733;28;20073;-63
2022/12/28 04:16:33;;;;;;;240.15;56.65;;;;;;;;;;10117732;28;20048;-63
2022/12/28 04:21:27;;;;;;;202.32;63.22;;;;;;;;;;10096883;28;20052;-63
2022/12/28 04:26:21;;;;;;;167.43;55.75;;;;;;;;;;10102786;28;20045;-63
2022/12/28 04:31:16;;;;;;;195.50;61.58;;;;;;;;;;10111791;28;20131;-63
2022/12/28 04:36:17;;;;;;;314.20;61.70;;;;;;;;;;10100288;28;20147;-63
2022/12/28 04:41:14;;;;;;;220.80;58.03;;;;;;;;;;10088341;28;20442;-63
2022/12/28 04:46:13;;;;;;;192.52;56.92;;;;;;;;;;10111132;28;20163;-63
2022/12/28 04:51:09;;;;;;;417.35;66.32;;;;;;;;;;10100827;28;20055;-63
2022/12/28 04:56:06;;;;;;;438.20;63.72;;;;;;;;;;10109512;28;20060;-63
2022/12/28 05:01:07;;;;;;;347.52;61.03;;;;;;;;;;10108050;28;20140;-63
2022/12/28 05:06:03;;;;;;;179.48;53.58;;;;;;;;;;10110081;28;20061;-63
2022/12/28 05:11:00;;;;;;;311.67;56.55;;;;;;;;;;10108898;28;20053;-63
2022/12/28 05:15:54;;;;;;;198.50;51.60;;;;;;;;;;10109487;28;20460;-63
2022/12/28 05:20:48;;;;;;;136.10;47.35;;;;;;;;;;10115452;28;20456;-63
2022/12/28 05:25:42;;;;;;;151.77;49.15;;;;;;;;;;10118572;28;20060;-63
2022/12/28 05:30:35;;;;;;;204.48;50.67;;;;;;;;;;10110385;28;20060;-63
2022/12/28 05:35:29;;;;;;;170.90;47.55;;;;;;;;;;10112060;28;20516;-63
2022/12/28 05:40:23;;;;;;;198.68;51.88;;;;;;;;;;10119974;28;20065;-63
2022/12/28 05:45:17;;;;;;;245.48;54.88;;;;;;;;;;10115416;28;20049;-63
2022/12/28 05:50:12;;;;;;;214.98;51.95;;;;;;;;;;10110254;28;20084;-63
2022/12/28 05:55:06;;;;;;;331.25;57.42;;;;;;;;;;10106557;28;20084;-63
2022/12/28 06:00:00;;;;;;;154.52;44.17;;;;;;;;;;10115820;28;20138;-63
2022/12/28 06:05:02;;;;;;;143.88;48.05;;;;;;;;;;10113350;28;20467;-63
2022/12/28 06:09:56;;;;;;;146.30;44.13;;;;;;;;;;10108392;28;20076;-63
2022/12/28 06:14:50;;;;;;;196.65;48.28;;;;;;;;;;10105911;28;20140;-63
2022/12/28 06:19:44;;;;;;;174.48;45.03;;;;;;;;;;10111002;28;20420;-63
2022/12/28 06:24:38;;;;;;;106.22;40.35;;;;;;;;;;10123793;28;20052;-63
2022/12/28 06:29:32;;;;;;;114.72;40.40;;;;;;;;;;10109103;28;20060;-64
2022/12/28 06:34:26;;;;;;;97.22;40.22;;;;;;;;;;10121884;28;20512;-63
2022/12/28 06:39:20;;;;;;;143.68;38.40;;;;;;;;;;10105185;28;20130;-64
2022/12/28 06:44:14;;;;;;;143.20;46.63;;;;;;;;;;10108459;28;20106;-64
2022/12/28 06:49:08;;;;;;;98.07;39.50;;;;;;;;;;10106049;28;20128;-63
2022/12/28 06:54:07;;;;;;;91.30;38.90;;;;;;;;;;10101458;28;20437;-64
2022/12/28 06:59:01;;;;;;;;;;;;;;;;;;10113074;28;20152;-62
2022/12/28 07:03:57;;;;;;;91.18;42.72;;;;;;;;;;10132447;28;19928;-63
2022/12/28 07:08:50;;;;;;;152.82;40.28;;;;;;;;;;10128425;28;20074;-63
2022/12/28 07:13:44;;;;;;;84.20;35.55;;;;;;;;;;10127501;28;20067;-63
2022/12/28 07:18:37;;;;;;;119.15;39.15;;;;;;;;;;10135860;28;20072;-63
2022/12/28 07:23:31;;;;;;;176.35;42.10;;;;;;;;;;10137707;28;20448;-63
2022/12/28 07:28:25;;;;;;;80.95;39.67;;;;;;;;;;10137114;28;20055;-64
2022/12/28 07:33:19;;;;;;;105.45;37.40;;;;;;;;;;10120335;28;20099;-63
2022/12/28 07:38:12;;;;;;;75.88;36.75;;;;;;;;;;10129155;28;20053;-63
2022/12/28 07:43:13;;;;;;;86.22;37.10;;;;;;;;;;10132216;28;20040;-62
2022/12/28 07:48:07;;;;;;;105.97;32.92;;;;;;;;;;10126797;28;20045;-64
2022/12/28 07:53:03;;;;;;;119.50;36.25;;;;;;;;;;10130817;28;20053;-65
2022/12/28 07:57:57;;;;;;;104.68;39.35;;;;;;;;;;10137748;28;20060;-63
2022/12/28 08:02:56;;;;;;;105.10;34.85;;;;;;;;;;10138270;28;20041;-64
2022/12/28 08:07:50;;;;;;;117.40;35.63;;;;;;;;;;10119749;28;20505;-64
2022/12/28 08:12:44;;;;;;;95.53;38.83;;;;;;;;;;10111431;28;20041;-63
2022/12/28 08:17:38;;;;;;;146.40;36.25;;;;;;;;;;10123822;28;20063;-62
2022/12/28 08:22:32;;;;;;;102.65;37.08;;;;;;;;;;10117383;28;20124;-64
2022/12/28 08:27:26;;;;;;;81.18;38.17;;;;;;;;;;10105826;28;20490;-67
2022/12/28 08:32:25;;;;;;;;;;;;;;;;;;10109992;28;20136;-62
2022/12/28 08:37:19;;;;;;;124.82;37.38;;;;;;;;;;10119147;28;19932;-65
2022/12/28 08:42:13;;;;;;;120.30;38.58;;;;;;;;;;10123485;28;20049;-64
2022/12/28 08:47:07;;;;;;;92.07;38.10;;;;;;;;;;10110339;28;20535;-66
2022/12/28 08:52:00;;;;;;;136.15;38.20;;;;;;;;;;10094947;28;20452;-66
2022/12/28 08:56:54;;;;;;;106.95;41.83;;;;;;;;;;10111966;28;20413;-66
2022/12/28 09:01:48;;;;;;;113.55;39.28;;;;;;;;;;10107495;28;20056;-66
2022/12/28 09:06:42;;;;;;;148.10;44.45;;;;;;;;;;10105885;28;20052;-65
2022/12/28 09:11:36;;;;;;;92.75;41.70;;;;;;;;;;10104888;28;20087;-66
2022/12/28 09:16:30;;;;;;;91.55;44.30;;;;;;;;;;10104353;28;20053;-65
2022/12/28 09:21:27;;;;;;;84.45;43.70;;;;;;;;;;10107067;28;20069;-65
2022/12/28 09:26:23;;;;;;;90.45;41.75;;;;;;;;;;10108043;28;20486;-65
2022/12/28 09:31:18;;;;;;;77.35;40.63;;;;;;;;;;10108528;28;20064;-66
2022/12/28 09:36:12;;;;;;;71.35;38.83;;;;;;;;;;10107688;28;20053;-65
2022/12/28 09:41:23;;;;;;;65.82;36.40;;;;;;;;;;10107740;28;20045;-65
2022/12/28 09:46:18;;;;;;;58.78;38.33;;;;;;;;;;10107588;28;20065;-66
2022/12/28 09:51:12;;;;;;;70.07;39.47;;;;;;;;;;10099478;28;20091;-66
2022/12/28 09:56:26;;;;;;;68.22;39.28;;;;;;;;;;10113552;28;20049;-66
2022/12/28 10:01:21;;;;;;;71.97;38.90;;;;;;;;;;10097084;28;20057;-66
2022/12/28 10:06:23;;;;;;;70.63;40.42;;;;;;;;;;10106792;28;20052;-66
2022/12/28 10:11:24;;;;;;;63.33;38.45;;;;;;;;;;10097385;28;20523;-66
2022/12/28 10:16:18;;;;;;;67.75;37.55;;;;;;;;;;10102319;28;20061;-66
2022/12/28 10:21:13;;;;;;;60.42;37.72;;;;;;;;;;10116926;28;20540;-66
2022/12/28 10:26:06;;;;;;;65.63;37.50;;;;;;;;;;10108476;28;20045;-67
2022/12/28 10:31:09;;;;;;;62.03;36.75;;;;;;;;;;10105670;28;20049;-66
2022/12/28 10:36:04;;;;;;;61.50;35.53;;;;;;;;;;10116502;28;20044;-65
2022/12/28 10:41:06;;;;;;;56.67;35.40;;;;;;;;;;10105960;28;20505;-66
2022/12/28 10:46:01;;;;;;;67.90;37.75;;;;;;;;;;10105194;28;20467;-65
2022/12/28 10:51:00;;;;;;;67.30;38.97;;;;;;;;;;10105262;28;20137;-66
2022/12/28 10:56:01;;;;;;;65.85;38.60;;;;;;;;;;10111307;28;20044;-67
2022/12/28 11:00:56;;;;;;;72.20;43.22;;;;;;;;;;10105318;28;20049;-67
2022/12/28 11:05:50;;;;;;;65.68;36.95;;;;;;;;;;10107539;28;20076;-66
2022/12/28 11:10:56;;;;;;;66.90;37.58;;;;;;;;;;10105398;28;20060;-66
2022/12/28 11:15:51;;;;;;;64.75;39.10;;;;;;;;;;10105502;28;20049;-66
2022/12/28 11:20:47;;;;;;;72.40;41.15;;;;;;;;;;10101569;28;20057;-67
2022/12/28 11:25:41;;;;;;;68.50;39.83;;;;;;;;;;10125259;28;20060;-67
2022/12/28 11:30:34;;;;;;;73.15;39.67;;;;;;;;;;10138526;28;20052;-65
2022/12/28 11:35:34;;;;;;;67.10;40.25;;;;;;;;;;10114137;28;20049;-65
2022/12/28 11:40:43;;;;;;;65.35;36.97;;;;;;;;;;10121769;28;20053;-65
2022/12/28 11:45:57;;;;;;;63.05;35.97;;;;;;;;;;10122087;28;20579;-65
2022/12/28 11:50:51;;;;;;;61.83;38.55;;;;;;;;;;10104094;28;20107;-65
2022/12/28 11:56:03;;;;;;;62.55;38.47;;;;;;;;;;10139829;28;20066;-65
2022/12/28 12:00:58;;;;;;;65.03;37.20;;;;;;;;;;10107904;28;20108;-65
2022/12/28 12:05:53;;;;;;;58.88;35.80;;;;;;;;;;10135140;28;20505;-65
2022/12/28 12:10:47;;;;;;;73.65;42.00;;;;;;;;;;10133586;28;20051;-65
2022/12/28 12:15:42;;;;;;;71.95;42.80;;;;;;;;;;10115931;28;20064;-65
2022/12/28 12:20:59;;;;;;;77.45;42.65;;;;;;;;;;10117369;28;20045;-66
2022/12/28 12:25:53;;;;;;;67.00;39.72;;;;;;;;;;10129299;28;20040;-66
2022/12/28 12:30:47;;;;;;;68.70;39.22;;;;;;;;;;10117021;28;20057;-66
2022/12/28 12:36:02;;;;;;;65.07;39.45;;;;;;;;;;10123555;28;20060;-66
2022/12/28 12:41:22;;;;;;;59.63;37.20;;;;;;;;;;10112390;28;20490;-65
2022/12/28 12:46:50;;;;;;;61.17;35.60;;;;;;;;;;10115222;28;20045;-65
2022/12/28 12:52:24;;;;;;;54.92;35.35;;;;;;;;;;10120428;28;20135;-65
2022/12/28 12:57:23;;;;;;;50.67;34.05;;;;;;;;;;10138530;28;20087;-65
2022/12/28 13:02:46;;;;;;;57.08;33.83;;;;;;;;;;10113789;28;20048;-65
2022/12/28 13:07:39;;;;;;;48.95;32.65;;;;;;;;;;10105692;28;20095;-66
2022/12/28 13:12:33;;;;;;;66.72;37.72;;;;;;;;;;10125511;28;20053;-65
2022/12/28 13:17:27;;;;;;;70.72;38.67;;;;;;;;;;10118322;28;20068;-66
2022/12/28 13:22:29;;;;;;;65.50;39.38;;;;;;;;;;10110375;28;20072;-66
2022/12/28 13:27:23;;;;;;;75.97;39.92;;;;;;;;;;10114635;28;20090;-66
2022/12/28 13:32:31;;;;;;;64.97;38.15;;;;;;;;;;10114402;28;20132;-66
2022/12/28 13:37:30;;;;;;;63.50;37.83;;;;;;;;;;10095904;28;20121;-66
2022/12/28 13:42:49;;;;;;;67.15;40.50;;;;;;;;;;10115538;28;20536;-65
2022/12/28 13:47:47;;;;;;;71.13;36.27;;;;;;;;;;10123456;28;20493;-64
2022/12/28 13:53:09;;;;;;;69.80;39.17;;;;;;;;;;10126189;28;20512;-66
2022/12/28 13:58:13;;;;;;;64.72;38.72;;;;;;;;;;10128710;28;20044;-63
2022/12/28 14:03:08;;;;;;;61.58;40.15;;;;;;;;;;10120276;28;20447;-64
2022/12/28 14:08:05;;;;;;;72.57;43.13;;;;;;;;;;10107089;28;20087;-64
2022/12/28 14:13:02;;;;;;;68.22;39.85;;;;;;;;;;10105493;28;20425;-65
2022/12/28 14:17:56;;;;;;;70.20;39.88;;;;;;;;;;10098152;28;20053;-63
2022/12/28 14:22:50;;;;;;;69.78;40.10;;;;;;;;;;10100997;28;20390;-62
2022/12/28 14:27:56;;;;;;;66.55;41.78;;;;;;;;;;10099204;28;20048;-61
2022/12/28 14:32:48;;;;;;;73.97;42.42;;;;;;;;;;10094059;28;20049;-61
2022/12/28 14:37:45;;;;;;;74.97;40.67;;;;;;;;;;10096107;28;20072;-62
2022/12/28 14:42:38;;;;;;;74.25;42.97;;;;;;;;;;10094636;28;20469;-61
2022/12/28 14:47:44;;;;;;;67.05;41.40;;;;;;;;;;10098168;28;20112;-61
2022/12/28 14:52:46;;;;;;;71.35;42.20;;;;;;;;;;10097966;28;20053;-61
2022/12/28 14:57:43;;;;;;;80.95;44.75;;;;;;;;;;10097902;28;20413;-61
2022/12/28 15:02:37;;;;;;;79.18;43.20;;;;;;;;;;10091293;28;20053;-61
2022/12/28 15:07:31;;;;;;;67.28;42.30;;;;;;;;;;10120708;28;20049;-61
2022/12/28 15:12:25;;;;;;;77.28;43.28;;;;;;;;;;10108626;28;20045;-62
2022/12/28 15:17:19;;;;;;;85.85;51.58;;;;;;;;;;10126922;28;20064;-62
2022/12/28 15:22:12;;;;;;;80.43;48.65;;;;;;;;;;10125462;28;20057;-61
2022/12/28 15:27:06;;;;;;;72.65;42.90;;;;;;;;;;10132811;28;20049;-62
2022/12/28 15:32:00;;;;;;;68.72;43.10;;;;;;;;;;10130561;28;20094;-61
2022/12/28 15:36:54;;;;;;;73.97;43.03;;;;;;;;;;10130328;28;20076;-62
2022/12/28 15:41:48;;;;;;;76.82;45.63;;;;;;;;;;10104320;28;21515;-62
2022/12/28 15:46:42;;;;;;;70.90;40.83;;;;;;;;;;10097122;28;20059;-62
2022/12/28 15:51:36;;;;;;;77.88;46.47;;;;;;;;;;10095358;28;20053;-61
2022/12/28 15:56:35;;;;;;;80.38;45.92;;;;;;;;;;10096303;28;20046;-60
2022/12/28 16:01:30;;;;;;;78.40;43.47;;;;;;;;;;10087146;28;20502;-61
2022/12/28 16:06:25;;;;;;;72.50;42.33;;;;;;;;;;10089407;28;20048;-61
2022/12/28 16:11:20;;;;;;;78.85;45.55;;;;;;;;;;10089818;28;20472;-61
2022/12/28 16:16:14;;;;;;;80.32;44.40;;;;;;;;;;10088866;28;20412;-61
2022/12/28 16:21:09;;;;;;;80.00;44.13;;;;;;;;;;10085726;28;20140;-61
2022/12/28 16:26:03;;;;;;;77.68;43.35;;;;;;;;;;10097242;28;20493;-61
2022/12/28 16:30:56;;;;;;;76.45;42.95;;;;;;;;;;10100602;28;20052;-62
2022/12/28 16:35:50;;;;;;;75.15;44.65;;;;;;;;;;10094031;28;20049;-61
2022/12/28 16:40:51;;;;;;;77.40;44.25;;;;;;;;;;10071974;28;20045;-61
2022/12/28 16:45:45;;;;;;;78.50;45.45;;;;;;;;;;10077912;28;20049;-62
2022/12/28 16:50:39;;;;;;;74.38;43.90;;;;;;;;;;10076528;28;20058;-62
2022/12/28 16:55:38;;;;;;;78.22;47.45;;;;;;;;;;10081927;28;20049;-65
2022/12/28 17:00:32;;;;;;;75.43;47.67;;;;;;;;;;10095857;28;20509;-66
2022/12/28 17:05:26;;;;;;;77.65;45.38;;;;;;;;;;10078301;28;20069;-66
2022/12/28 17:10:20;;;;;;;83.35;47.88;;;;;;;;;;10083328;28;20049;-66
2022/12/28 17:15:13;;;;;;;88.70;47.92;;;;;;;;;;10083405;28;20119;-65
2022/12/28 17:20:07;;;;;;;81.20;48.13;;;;;;;;;;10079349;28;20045;-66
2022/12/28 17:25:01;;;;;;;77.70;45.45;;;;;;;;;;10074163;28;20045;-66
2022/12/28 17:29:55;;;;;;;73.00;44.15;;;;;;;;;;10073192;28;20502;-65
2022/12/28 17:34:49;;;;;;;74.32;42.67;;;;;;;;;;10078410;28;20132;-65
2022/12/28 17:39:43;;;;;;;78.85;44.10;;;;;;;;;;10099255;28;20045;-65
2022/12/28 17:44:37;;;;;;;83.45;45.17;;;;;;;;;;10079756;28;20059;-64
2022/12/28 17:49:31;;;;;;;84.35;46.83;;;;;;;;;;10085734;28;20053;-65
2022/12/28 17:54:25;;;;;;;111.38;68.47;;;;;;;;;;10106625;28;20055;-65
2022/12/28 17:59:18;;;;;;;87.97;54.10;;;;;;;;;;10088192;28;20052;-65
2022/12/28 18:04:12;;;;;;;80.25;49.97;;;;;;;;;;10080862;28;20120;-65
2022/12/28 18:09:05;;;;;;;83.55;51.33;;;;;;;;;;10085718;28;20053;-65
2022/12/28 18:14:00;;;;;;;80.88;47.38;;;;;;;;;;10085452;28;20140;-66
2022/12/28 18:18:53;;;;;;;73.38;42.47;;;;;;;;;;10105168;28;20057;-66
2022/12/28 18:23:49;;;;;;;76.40;42.58;;;;;;;;;;10106250;28;20056;-66
2022/12/28 18:28:42;;;;;;;73.80;43.90;;;;;;;;;;10106302;28;20073;-66
2022/12/28 18:33:36;;;;;;;68.13;41.53;;;;;;;;;;10092642;28;20045;-66
2022/12/28 18:38:30;;;;;;;68.93;42.20;;;;;;;;;;10085692;28;20052;-65
2022/12/28 18:43:24;;;;;;;81.00;47.33;;;;;;;;;;10103777;28;20053;-67
2022/12/28 18:48:18;;;;;;;75.28;46.85;;;;;;;;;;10105349;28;20536;-66
2022/12/28 18:53:12;;;;;;;68.70;42.35;;;;;;;;;;10104953;28;20061;-64
2022/12/28 18:58:06;;;;;;;68.82;45.10;;;;;;;;;;10104822;28;20418;-64
2022/12/28 19:02:59;;;;;;;71.60;42.63;;;;;;;;;;10101411;28;20057;-64
2022/12/28 19:07:54;;;;;;;71.40;39.70;;;;;;;;;;10092952;28;20401;-65
2022/12/28 19:12:48;;;;;;;71.82;42.17;;;;;;;;;;10078098;28;20046;-66
2022/12/28 19:17:42;;;;;;;84.97;47.53;;;;;;;;;;10071878;28;20474;-64
2022/12/28 19:22:36;;;;;;;74.40;44.13;;;;;;;;;;10067971;28;20072;-64
2022/12/28 19:27:30;;;;;;;79.40;44.30;;;;;;;;;;10068603;28;20076;-64
2022/12/28 19:32:23;;;;;;;75.32;46.38;;;;;;;;;;10067977;28;20517;-66
2022/12/28 19:37:17;;;;;;;81.18;45.90;;;;;;;;;;10084383;28;20084;-64
2022/12/28 19:42:11;;;;;;;68.07;41.63;;;;;;;;;;10104390;28;20123;-64
2022/12/28 19:47:04;;;;;;;71.03;43.15;;;;;;;;;;10104216;28;20048;-62
2022/12/28 19:52:01;;;;;;;73.88;44.10;;;;;;;;;;10108218;28;20139;-63
2022/12/28 19:56:55;;;;;;;295.92;168.20;;;;;;;;;;10111368;28;20096;-60
2022/12/28 20:01:48;;;;;;;259.13;140.00;;;;;;;;;;10105203;28;20453;-64
2022/12/28 20:06:43;;;;;;;85.95;54.95;;;;;;;;;;10090259;28;20049;-66
2022/12/28 20:11:37;;;;;;;78.00;49.20;;;;;;;;;;10086579;28;20048;-65
2022/12/28 20:16:32;;;;;;;74.78;47.28;;;;;;;;;;10085047;28;20120;-65
2022/12/28 20:21:25;;;;;;;88.82;49.85;;;;;;;;;;10096122;28;20500;-65
2022/12/28 20:26:20;;;;;;;81.78;50.08;;;;;;;;;;10089148;28;20506;-64
2022/12/28 20:31:14;;;;;;;79.57;51.65;;;;;;;;;;10085008;28;20123;-65
2022/12/28 20:36:29;;;;;;;81.32;47.90;;;;;;;;;;10093438;28;20633;-64
2022/12/28 20:46:41;;;;;;;75.15;46.00;;;;;;;;;;10084114;28;20098;-63
2022/12/28 20:51:35;;;;;;;76.55;46.45;;;;;;;;;;10086255;28;20135;-63
2022/12/28 20:56:30;;;;;;;79.03;46.83;;;;;;;;;;10095038;28;20045;-63
2022/12/28 21:01:23;;;;;;;76.22;46.08;;;;;;;;;;10099777;28;20060;-64
2022/12/28 21:06:17;;;;;;;76.35;46.42;;;;;;;;;;10094867;28;20037;-64
2022/12/28 21:11:12;;;;;;;75.15;45.70;;;;;;;;;;10093961;28;20069;-63
2022/12/28 21:16:07;;;;;;;73.95;43.05;;;;;;;;;;10102304;28;20482;-65
2022/12/28 21:21:03;;;;;;;73.53;46.28;;;;;;;;;;10096709;28;20501;-63
2022/12/28 21:26:01;;;;;;;78.40;46.65;;;;;;;;;;10091930;28;20045;-63
2022/12/28 21:30:55;;;;;;;80.03;47.65;;;;;;;;;;10087190;28;20051;-64
2022/12/28 21:35:58;;;;;;;72.75;44.10;;;;;;;;;;10097951;28;20041;-64
2022/12/28 21:40:57;;;;;;;77.05;48.28;;;;;;;;;;10092744;28;20481;-63
2022/12/28 21:45:56;;;;;;;79.53;45.45;;;;;;;;;;10092056;28;20136;-64
2022/12/28 21:50:55;;;;;;;73.45;47.22;;;;;;;;;;10100122;28;20072;-64
2022/12/28 21:55:49;;;;;;;77.18;46.53;;;;;;;;;;10086396;28;20709;-64
2022/12/28 22:06:08;;;;;;;73.75;44.90;;;;;;;;;;9987874;28;20042;-64
2022/12/28 22:16:13;;;;;;;70.30;43.17;;;;;;;;;;10088594;28;20075;-64
2022/12/28 22:21:07;;;;;;;69.38;43.75;;;;;;;;;;10089552;28;20045;-63
2022/12/28 22:26:01;;;;;;;79.28;45.50;;;;;;;;;;10095653;28;20052;-63
2022/12/28 22:30:55;;;;;;;71.88;44.45;;;;;;;;;;10095497;28;20053;-63
2022/12/28 22:35:49;;;;;;;72.97;42.75;;;;;;;;;;10091154;28;20077;-63
2022/12/28 22:40:43;;;;;;;69.53;43.25;;;;;;;;;;10090154;28;20457;-63
2022/12/28 22:45:37;;;;;;;71.88;44.97;;;;;;;;;;10085209;28;20045;-64
2022/12/28 22:50:32;;;;;;;82.65;43.78;;;;;;;;;;10089184;28;20060;-63
2022/12/28 22:55:32;;;;;;;65.38;41.30;;;;;;;;;;10093884;28;20029;-64
2022/12/28 23:00:26;;;;;;;74.57;42.47;;;;;;;;;;10093987;28;20131;-63
2022/12/28 23:05:20;;;;;;;75.10;48.28;;;;;;;;;;10089999;28;20057;-64
2022/12/28 23:10:14;;;;;;;84.60;49.90;;;;;;;;;;10083637;28;20056;-64
2022/12/28 23:15:17;;;;;;;81.28;43.22;;;;;;;;;;10087500;28;20071;-63
2022/12/28 23:30:56;;;;;;;82.45;48.35;;;;;;;;;;10100064;28;20051;-63
2022/12/28 23:35:49;;;;;;;76.85;46.67;;;;;;;;;;10099022;28;20564;-64
2022/12/28 23:40:43;;;;;;;82.78;48.35;;;;;;;;;;10098514;28;20681;-64
2022/12/28 23:45:37;;;;;;;70.40;46.17;;;;;;;;;;10097587;28;20512;-65
2022/12/28 23:50:30;;;;;;;72.13;45.90;;;;;;;;;;10100464;28;20056;-65
2022/12/28 23:55:25;;;;;;;67.18;41.00;;;;;;;;;;10104056;28;20048;-65
